Time;durP1;ratioP1;P1;durP2;ratioP2;P2;SDS_P1;SDS_P2;PMS_P1;PMS_P2;Temp;Humidity;BMP_temperature;BMP_pressure;BME280_temperature;BME280_humidity;BME280_pressure;Samples;Min_cycle;Max_cycle;Signal;HPM_P1;HPM_P2
2022/10/13 06:12:20;;;;;;;15.05;6.45;;;16.20;73.80;;;;;;4997000;24;20145;-74
2022/10/13 06:14:46;;;;;;;16.80;7.15;;;16.30;73.40;;;;;;4826090;29;20117;-76
2022/10/13 06:17:11;;;;;;;13.43;5.68;;;16.30;71.60;;;;;;4825773;29;20118;-75
2022/10/13 06:19:37;;;;;;;15.93;6.10;;;16.10;72.50;;;;;;4810928;29;20134;-77
2022/10/13 06:22:03;;;;;;;18.20;6.25;;;16.20;73.80;;;;;;4825898;29;20064;-75
2022/10/13 06:24:29;;;;;;;13.88;5.70;;;16.30;73.40;;;;;;4810000;29;20120;-75
2022/10/13 06:26:55;;;;;;;16.33;5.80;;;16.30;74.00;;;;;;4825635;29;20051;-79
2022/10/13 06:29:20;;;;;;;16.65;6.13;;;16.40;74.10;;;;;;4835894;29;20185;-76
2022/10/13 06:31:46;;;;;;;18.15;5.75;;;16.60;73.90;;;;;;4844297;29;20045;-76
2022/10/13 06:34:12;;;;;;;29.02;7.10;;;16.80;73.70;;;;;;4843847;29;20426;-78
2022/10/13 06:36:38;;;;;;;13.02;5.10;;;16.90;73.40;;;;;;4845601;29;20042;-77
2022/10/13 06:39:03;;;;;;;22.40;6.43;;;16.90;74.00;;;;;;4831800;29;20373;-77
2022/10/13 06:41:29;;;;;;;23.02;6.07;;;17.00;73.50;;;;;;4832074;29;20170;-78
2022/10/13 06:43:55;;;;;;;19.25;6.13;;;17.00;71.60;;;;;;4831435;29;20056;-77
2022/10/13 06:46:20;;;;;;;16.48;5.60;;;16.90;73.00;;;;;;4831916;29;20050;-77
2022/10/13 06:48:50;;;;;;;22.00;5.40;;;17.10;73.10;;;;;;4847472;29;20373;-78
2022/10/13 06:52:21;;;;;;;17.65;5.88;;;17.20;72.90;;;;;;4847594;29;20049;-80
2022/10/13 06:54:49;;;;;;;20.45;6.32;;;17.40;72.60;;;;;;4805353;29;20177;-79
2022/10/13 06:57:15;;;;;;;42.20;9.07;;;17.40;72.20;;;;;;4847324;29;20038;-76
2022/10/13 07:00:07;;;;;;;61.10;12.10;;;17.50;72.10;;;;;;4831008;29;20190;-78
2022/10/13 07:02:36;;;;;;;53.80;10.63;;;17.50;71.80;;;;;;4847134;29;20049;-79
2022/10/13 07:05:02;;;;;;;34.90;9.63;;;17.40;72.10;;;;;;4846996;29;20049;-77
2022/10/13 07:07:28;;;;;;;34.60;11.02;;;17.30;72.10;;;;;;4847088;29;20052;-78
2022/10/13 07:09:53;;;;;;;25.30;7.43;;;17.30;72.00;;;;;;4847464;29;20059;-77
2022/10/13 07:12:20;;;;;;;26.85;8.75;;;17.10;71.50;;;;;;4847578;29;20069;-75
2022/10/13 07:14:54;;;;;;;22.50;8.82;;;17.00;71.80;;;;;;4847041;29;20555;-78
2022/10/13 07:17:19;;;;;;;18.40;8.85;;;16.80;72.00;;;;;;4845604;29;20128;-80
2022/10/13 07:19:47;;;;;;;19.95;9.05;;;16.70;72.40;;;;;;4844400;29;20133;-79
2022/10/13 07:22:14;;;;;;;19.02;9.10;;;16.60;72.60;;;;;;4828703;29;20653;-80
2022/10/13 07:24:39;;;;;;;20.83;8.70;;;16.50;73.00;;;;;;4813475;29;20188;-78
2022/10/13 07:27:05;;;;;;;23.33;8.57;;;16.40;73.10;;;;;;4794384;29;20079;-79
2022/10/13 07:29:31;;;;;;;17.42;8.23;;;16.40;73.40;;;;;;4793561;29;20046;-78
2022/10/13 07:31:57;;;;;;;20.35;9.80;;;16.40;73.40;;;;;;4810603;29;20328;-78
2022/10/13 07:34:22;;;;;;;19.42;8.65;;;16.40;73.70;;;;;;4824859;29;20053;-78
2022/10/13 07:36:48;;;;;;;16.25;7.65;;;16.30;73.70;;;;;;4828675;29;20343;-77
2022/10/13 07:39:14;;;;;;;24.60;8.20;;;16.30;73.70;;;;;;4827968;29;20057;-78
2022/10/13 07:41:40;;;;;;;26.35;8.55;;;16.30;73.80;;;;;;4828781;29;20054;-77
2022/10/13 07:44:05;;;;;;;24.70;7.85;;;16.20;73.80;;;;;;4815937;29;20421;-78
2022/10/13 07:46:31;;;;;;;25.55;7.55;;;16.30;73.90;;;;;;4794291;29;20059;-77
2022/10/13 07:48:57;;;;;;;21.05;6.68;;;16.30;73.90;;;;;;4793964;29;20073;-78
2022/10/13 07:51:23;;;;;;;20.48;6.78;;;16.20;73.80;;;;;;4795175;29;20054;-78
2022/10/13 07:53:49;;;;;;;19.65;6.93;;;16.20;73.90;;;;;;4803472;29;20375;-77
2022/10/13 07:56:15;;;;;;;23.67;6.30;;;16.20;73.90;;;;;;4828063;29;20054;-79
2022/10/13 07:58:44;;;;;;;22.13;6.20;;;16.20;73.90;;;;;;4811315;29;20050;-79
2022/10/13 08:01:10;;;;;;;15.55;6.57;;;16.20;74.00;;;;;;4827639;29;20046;-78
2022/10/13 08:03:36;;;;;;;23.98;6.35;;;16.20;73.90;;;;;;4810213;29;20061;-78
2022/10/13 08:06:03;;;;;;;18.90;6.72;;;16.20;73.90;;;;;;4810154;29;20454;-76
2022/10/13 08:08:30;;;;;;;19.88;6.03;;;16.20;73.90;;;;;;4809636;29;20058;-77
2022/10/13 08:11:10;;;;;;;31.85;8.43;;;16.20;74.00;;;;;;4809788;29;20090;-76
2022/10/13 08:13:36;;;;;;;18.52;5.88;;;16.30;74.30;;;;;;4824654;29;20062;-79
2022/10/13 08:16:02;;;;;;;22.70;7.13;;;16.20;74.70;;;;;;4826947;29;20058;-78
2022/10/13 08:18:37;;;;;;;34.53;7.80;;;16.20;74.20;;;;;;4826471;29;20054;-76
2022/10/13 08:21:04;;;;;;;32.65;7.07;;;16.20;74.10;;;;;;4826595;29;20085;-79
2022/10/13 08:23:30;;;;;;;33.65;9.35;;;16.20;74.30;;;;;;4797521;29;20055;-78
2022/10/13 08:25:56;;;;;;;28.75;9.15;;;16.20;74.40;;;;;;4809633;29;20058;-78
2022/10/13 08:28:24;;;;;;;35.67;9.55;;;16.20;74.50;;;;;;4793052;29;20051;-76
2022/10/13 08:30:52;;;;;;;31.42;9.38;;;16.30;74.70;;;;;;4809976;29;20050;-77
2022/10/13 08:33:18;;;;;;;26.40;8.95;;;16.30;74.60;;;;;;4820802;29;20386;-78
2022/10/13 08:35:44;;;;;;;40.25;10.23;;;16.30;74.60;;;;;;4827658;29;20058;-77
2022/10/13 08:38:12;;;;;;;31.55;13.15;;;16.40;74.70;;;;;;4826917;29;20069;-78
2022/10/13 08:40:38;;;;;;;25.42;14.73;;;16.40;74.80;;;;;;4811775;29;20057;-76
2022/10/13 08:43:11;;;;;;;33.17;18.33;;;16.40;75.00;;;;;;4817385;29;20066;-77
2022/10/13 08:53:41;;;;;;;25.05;16.23;;;16.40;76.00;;;;;;4801117;29;20485;-76
2022/10/13 08:56:18;;;;;;;21.88;15.18;;;16.40;76.30;;;;;;4808558;29;20046;-76
2022/10/13 08:58:45;;;;;;;19.65;12.95;;;16.30;76.30;;;;;;4827137;29;20378;-77
2022/10/13 09:01:18;;;;;;;23.27;13.52;;;16.40;76.20;;;;;;4826673;29;20047;-76
2022/10/13 09:04:10;;;;;;;25.25;12.60;;;16.30;76.00;;;;;;4797242;29;20133;-77
2022/10/13 09:06:44;;;;;;;26.50;14.23;;;16.30;75.80;;;;;;4807843;29;20447;-77
2022/10/13 09:09:12;;;;;;;19.70;11.88;;;16.30;76.00;;;;;;4808606;29;20054;-78
2022/10/13 09:11:40;;;;;;;19.67;11.32;;;16.40;76.00;;;;;;4792626;29;20497;-77
2022/10/13 09:14:11;;;;;;;21.58;11.10;;;16.40;75.90;;;;;;4824616;29;20076;-76
2022/10/13 09:16:38;;;;;;;20.63;11.30;;;16.40;75.90;;;;;;4810892;29;20062;-76
2022/10/13 09:19:35;;;;;;;30.05;11.52;;;16.40;75.70;;;;;;4811096;29;20133;-76
2022/10/13 09:22:26;;;;;;;29.27;11.38;;;16.40;75.40;;;;;;5132959;27;20393;-76
2022/10/13 09:25:10;;;;;;;21.83;9.48;;;16.40;75.50;;;;;;5112942;28;20052;-79
2022/10/13 09:27:47;;;;;;;24.63;11.02;;;16.40;75.60;;;;;;5112024;28;20036;-80
2022/10/13 09:30:34;;;;;;;29.73;9.68;;;16.40;75.60;;;;;;5112990;28;20144;-76
2022/10/13 09:33:12;;;;;;;28.13;9.43;;;16.40;75.40;;;;;;5094390;28;20088;-78
2022/10/13 09:35:47;;;;;;;31.67;9.95;;;16.40;75.60;;;;;;5112647;28;20044;-77
2022/10/13 09:38:19;;;;;;;24.42;9.15;;;16.40;75.60;;;;;;5095242;28;20090;-76
2022/10/13 09:41:08;;;;;;;23.58;8.98;;;16.40;75.60;;;;;;5094905;28;20491;-76
2022/10/13 09:43:46;;;;;;;19.50;8.07;;;16.40;75.30;;;;;;5094549;28;20435;-76
2022/10/13 09:47:02;;;;;;;34.58;9.10;;;16.40;75.30;;;;;;5095095;28;20083;-74
2022/10/13 09:49:36;;;;;;;24.30;8.23;;;16.40;75.30;;;;;;5044563;28;20469;-78
2022/10/13 09:52:11;;;;;;;;;;;16.40;75.50;;;;;;5112925;28;20040;-73
2022/10/13 09:54:42;;;;;;;27.13;7.78;;;16.40;75.00;;;;;;5091825;28;20333;-74
2022/10/13 09:57:33;;;;;;;22.70;6.25;;;16.40;75.40;;;;;;5091859;28;20464;-73
2022/10/13 10:00:10;;;;;;;23.83;7.57;;;16.40;75.40;;;;;;5091767;28;20123;-73
2022/10/13 10:03:04;;;;;;;27.75;7.50;;;16.40;75.50;;;;;;5101148;28;20101;-74
2022/10/13 10:05:54;;;;;;;20.20;6.80;;;16.50;75.40;;;;;;5112099;28;20421;-74
2022/10/13 10:08:36;;;;;;;18.15;6.32;;;16.40;75.30;;;;;;5112571;28;20116;-73
2022/10/13 10:11:09;;;;;;;25.88;6.72;;;16.40;75.20;;;;;;5112988;28;20351;-74
2022/10/13 10:13:35;;;;;;;28.77;7.90;;;16.40;75.30;;;;;;5111766;28;20069;-74
2022/10/13 10:16:20;;;;;;;22.08;7.18;;;16.50;75.40;;;;;;5112481;28;20048;-75
2022/10/13 10:18:58;;;;;;;24.80;5.70;;;16.50;75.20;;;;;;5112165;28;20112;-73
2022/10/13 10:21:42;;;;;;;18.40;5.70;;;16.50;75.20;;;;;;5112153;28;20059;-73
2022/10/13 10:24:26;;;;;;;23.15;7.70;;;16.50;75.20;;;;;;5091924;28;20075;-76
2022/10/13 10:26:59;;;;;;;;;;;16.40;75.30;;;;;;5091280;28;20052;-74
2022/10/13 10:29:42;;;;;;;17.90;9.90;;;16.40;75.40;;;;;;5090854;28;19920;-73
2022/10/13 10:32:30;;;;;;;14.50;10.05;;;16.40;76.90;;;;;;5089316;28;20040;-74
2022/10/13 10:35:03;;;;;;;17.58;9.00;;;16.40;77.20;;;;;;5098280;28;20051;-76
2022/10/13 10:37:52;;;;;;;13.38;8.00;;;16.40;77.40;;;;;;5098353;28;20087;-76
2022/10/13 10:40:43;;;;;;;14.05;7.50;;;16.40;77.20;;;;;;5097805;28;20070;-75
2022/10/13 10:43:38;;;;;;;15.02;7.60;;;16.40;77.00;;;;;;5097669;28;20055;-76
2022/10/13 10:46:09;;;;;;;15.50;7.32;;;16.50;76.90;;;;;;5079970;28;20272;-75
2022/10/13 10:48:39;;;;;;;11.68;7.50;;;16.40;76.80;;;;;;5098729;28;20121;-75
2022/10/13 10:51:07;;;;;;;10.18;6.88;;;16.50;76.70;;;;;;5097526;28;20044;-75
2022/10/13 10:53:37;;;;;;;14.02;6.80;;;16.50;76.80;;;;;;5079727;28;20048;-79
2022/10/13 10:56:25;;;;;;;14.40;6.63;;;16.50;76.70;;;;;;5097672;28;20073;-77
2022/10/13 10:59:09;;;;;;;15.38;7.05;;;16.50;76.70;;;;;;5079839;28;20048;-77
2022/10/13 11:02:00;;;;;;;23.08;7.47;;;16.50;76.70;;;;;;5080304;28;20113;-76
2022/10/13 11:04:32;;;;;;;24.83;7.57;;;16.50;76.70;;;;;;5064475;28;20036;-76
2022/10/13 11:06:58;;;;;;;15.82;5.60;;;16.50;76.70;;;;;;5097143;28;20044;-78
2022/10/13 11:09:40;;;;;;;20.85;5.68;;;16.50;76.70;;;;;;5097645;28;20131;-76
2022/10/13 11:12:18;;;;;;;16.48;5.13;;;16.50;76.70;;;;;;5097020;28;20059;-76
2022/10/13 11:14:47;;;;;;;18.23;5.00;;;16.60;76.80;;;;;;5096949;28;20043;-77
2022/10/13 11:17:25;;;;;;;13.95;4.93;;;16.60;76.70;;;;;;5079825;28;20055;-77
2022/10/13 11:19:52;;;;;;;14.25;4.70;;;16.60;76.70;;;;;;5097676;28;20087;-75
2022/10/13 11:22:20;;;;;;;19.85;4.50;;;16.60;76.60;;;;;;5096746;28;20103;-76
2022/10/13 11:24:51;;;;;;;11.65;4.10;;;16.60;76.60;;;;;;5078937;28;20048;-75
2022/10/13 11:27:33;;;;;;;15.57;3.75;;;16.70;76.50;;;;;;5078773;28;20048;-76
2022/10/13 11:30:01;;;;;;;10.18;3.50;;;16.70;76.40;;;;;;5096679;28;20052;-77
2022/10/13 11:32:29;;;;;;;8.05;3.25;;;16.70;76.30;;;;;;5075306;28;20084;-75
2022/10/13 11:35:04;;;;;;;10.57;3.55;;;16.80;76.30;;;;;;5059820;28;20127;-78
2022/10/13 11:37:51;;;;;;;8.20;3.25;;;16.80;76.20;;;;;;5076943;28;20059;-75
2022/10/13 11:40:31;;;;;;;10.75;3.85;;;16.80;76.20;;;;;;5058865;28;20102;-77
2022/10/13 11:43:09;;;;;;;8.02;2.83;;;16.80;76.10;;;;;;5097004;28;20047;-77
2022/10/13 11:45:55;;;;;;;9.55;2.50;;;16.80;75.40;;;;;;5094890;28;20075;-75
2022/10/13 11:48:42;;;;;;;11.57;2.97;;;16.70;75.30;;;;;;5077520;28;20342;-76
2022/10/13 11:51:41;;;;;;;8.48;2.78;;;16.70;75.60;;;;;;5096001;28;20489;-77
2022/10/13 11:54:13;;;;;;;8.57;2.63;;;16.70;75.50;;;;;;5095882;28;20067;-75
2022/10/13 11:56:44;;;;;;;8.30;2.45;;;16.70;75.60;;;;;;5078462;28;20055;-77
2022/10/13 11:59:29;;;;;;;8.63;2.50;;;16.60;75.70;;;;;;5096186;28;20044;-76
2022/10/13 12:02:26;;;;;;;9.65;2.97;;;16.70;75.90;;;;;;5093715;28;20036;-76
2022/10/13 13:02:24;;;;;;;8.77;1.45;;;16.70;76.70;;;;;;5403222;24;20479;-75
2022/10/13 13:04:50;;;;;;;13.52;2.72;;;16.70;76.50;;;;;;4788086;30;20485;-75
2022/10/13 13:07:35;;;;;;;21.48;1.95;;;16.70;76.80;;;;;;4790208;30;20051;-72
2022/10/13 13:10:07;;;;;;;13.15;2.60;;;16.70;76.90;;;;;;4790465;30;20343;-73
2022/10/13 13:12:34;;;;;;;13.93;2.75;;;16.70;77.00;;;;;;4789605;30;20460;-73
2022/10/13 13:15:23;;;;;;;16.20;1.95;;;16.70;77.10;;;;;;4789111;30;20074;-73
2022/10/13 13:17:53;;;;;;;9.50;1.98;;;16.70;77.40;;;;;;4773469;30;20383;-74
2022/10/13 13:20:23;;;;;;;9.00;1.70;;;16.70;77.30;;;;;;4789926;30;20055;-74
2022/10/13 13:22:49;;;;;;;7.97;1.38;;;16.70;77.30;;;;;;4789458;30;20495;-73
2022/10/13 13:25:15;;;;;;;7.78;1.50;;;16.80;77.40;;;;;;4789895;30;20051;-73
2022/10/13 13:27:41;;;;;;;5.35;0.90;;;16.70;77.50;;;;;;4789682;30;20204;-73
2022/10/13 13:30:14;;;;;;;7.18;1.20;;;16.70;77.50;;;;;;4789314;30;20479;-74
2022/10/13 13:32:47;;;;;;;7.47;0.93;;;16.70;77.60;;;;;;4788366;30;20078;-74
2022/10/13 13:35:16;;;;;;;4.95;1.13;;;16.70;77.50;;;;;;4789464;30;20059;-74
2022/10/13 13:37:47;;;;;;;12.93;1.35;;;16.70;77.60;;;;;;4789898;30;20375;-73
2022/10/13 13:40:22;;;;;;;12.55;1.65;;;16.70;77.70;;;;;;4789780;30;20055;-73
2022/10/13 13:42:47;;;;;;;10.00;1.63;;;16.70;77.90;;;;;;4789951;30;20155;-74
2022/10/13 13:45:15;;;;;;;8.77;1.35;;;16.70;78.00;;;;;;4789856;30;20086;-74
2022/10/13 13:47:41;;;;;;;5.57;0.85;;;16.70;78.20;;;;;;4774671;30;20062;-74
2022/10/13 13:50:16;;;;;;;6.07;1.10;;;16.80;78.10;;;;;;4789422;30;20055;-75
2022/10/13 13:52:42;;;;;;;9.05;1.40;;;16.80;78.00;;;;;;4788273;29;20047;-76
2022/10/13 13:55:08;;;;;;;10.15;1.55;;;16.80;78.00;;;;;;4789976;30;20120;-78
2022/10/13 13:57:33;;;;;;;10.55;1.30;;;16.80;77.90;;;;;;4789041;30;20139;-77
2022/10/13 13:59:59;;;;;;;14.30;1.98;;;16.70;77.80;;;;;;4786684;30;20138;-77
2022/10/13 14:02:25;;;;;;;9.00;1.45;;;16.80;78.10;;;;;;4788499;30;20083;-81
2022/10/13 14:04:52;;;;;;;16.77;1.90;;;16.80;78.20;;;;;;4773449;30;20050;-78
2022/10/13 14:07:18;;;;;;;13.15;1.63;;;16.80;78.30;;;;;;4790355;29;20043;-78
2022/10/13 14:09:44;;;;;;;9.07;1.27;;;16.80;78.50;;;;;;4792659;30;20093;-75
2022/10/13 14:12:10;;;;;;;15.00;1.80;;;16.80;78.60;;;;;;4792481;30;20467;-78
2022/10/13 14:14:36;;;;;;;7.63;1.60;;;16.80;78.90;;;;;;4792458;30;20130;-80
2022/10/13 14:17:03;;;;;;;10.55;1.10;;;16.80;78.90;;;;;;4792680;30;20077;-85
2022/10/13 14:19:30;;;;;;;10.23;1.77;;;16.80;78.80;;;;;;4792514;30;20051;-74
2022/10/13 14:21:55;;;;;;;11.10;1.70;;;16.80;78.80;;;;;;4791664;30;20418;-82
2022/10/13 14:24:21;;;;;;;11.48;1.83;;;16.80;78.50;;;;;;4792274;30;20042;-80
2022/10/13 14:26:47;;;;;;;10.52;1.25;;;16.80;78.20;;;;;;4792288;30;20078;-80
2022/10/13 14:29:13;;;;;;;10.93;1.35;;;16.80;78.10;;;;;;4776385;30;20143;-81
2022/10/13 14:31:39;;;;;;;6.88;1.83;;;16.80;78.30;;;;;;4761499;30;20051;-80
2022/10/13 14:34:04;;;;;;;10.02;1.30;;;16.80;78.30;;;;;;4776501;30;20048;-83
2022/10/13 14:36:30;;;;;;;9.02;1.42;;;16.80;78.30;;;;;;4776610;30;20145;-82
2022/10/13 14:38:56;;;;;;;6.47;1.42;;;16.80;78.40;;;;;;4792742;30;20059;-81
2022/10/13 14:41:22;;;;;;;9.88;1.80;;;16.80;78.40;;;;;;4776929;30;20441;-79
2022/10/13 14:43:52;;;;;;;6.28;1.20;;;16.80;78.40;;;;;;4776767;30;20062;-82
2022/10/13 14:46:17;;;;;;;7.53;1.38;;;16.80;78.30;;;;;;4776648;30;20051;-80
2022/10/13 14:48:43;;;;;;;6.88;1.20;;;16.80;78.30;;;;;;4792073;30;20116;-76
2022/10/13 14:51:10;;;;;;;9.85;1.58;;;16.80;78.10;;;;;;4791386;30;20047;-74
2022/10/13 14:53:37;;;;;;;6.07;1.10;;;16.80;78.10;;;;;;4792003;30;20134;-73
2022/10/13 14:56:12;;;;;;;4.47;0.98;;;16.80;78.10;;;;;;4792253;30;20138;-74
2022/10/13 14:58:38;;;;;;;3.08;0.80;;;16.80;78.10;;;;;;4791729;30;20447;-75
2022/10/13 15:01:04;;;;;;;4.07;1.00;;;16.90;78.10;;;;;;4792054;30;20062;-74
2022/10/13 15:03:29;;;;;;;3.42;0.80;;;16.90;78.10;;;;;;4791512;30;20364;-74
2022/10/13 15:05:55;;;;;;;4.82;0.85;;;16.90;78.00;;;;;;4792006;30;20051;-77
2022/10/13 15:08:21;;;;;;;2.97;0.73;;;16.80;77.90;;;;;;4791799;30;20062;-79
2022/10/13 15:10:47;;;;;;;4.47;1.00;;;16.90;78.50;;;;;;4791756;30;20051;-78
2022/10/13 15:13:12;;;;;;;4.70;0.90;;;16.80;77.80;;;;;;4790444;30;20059;-77
2022/10/13 15:15:45;;;;;;;4.50;0.75;;;16.80;77.80;;;;;;4790925;30;20059;-78
2022/10/13 15:18:11;;;;;;;4.93;0.65;;;16.80;77.80;;;;;;4790489;29;20138;-77
2022/10/13 15:20:37;;;;;;;5.50;0.85;;;16.80;77.80;;;;;;4791197;30;20047;-78
2022/10/13 15:23:02;;;;;;;5.43;1.23;;;16.80;77.90;;;;;;4791538;30;20071;-78
2022/10/13 15:25:28;;;;;;;3.15;0.80;;;16.80;77.90;;;;;;4791086;30;20058;-78
2022/10/13 15:27:54;;;;;;;6.00;0.57;;;16.80;77.90;;;;;;4791232;30;20536;-78
2022/10/13 15:30:19;;;;;;;4.90;0.70;;;16.80;77.80;;;;;;4776631;30;20455;-80
2022/10/13 15:32:48;;;;;;;6.03;0.95;;;16.80;77.70;;;;;;4776054;30;20150;-79
2022/10/13 15:35:14;;;;;;;3.33;0.88;;;16.80;77.70;;;;;;4791637;30;20063;-78
2022/10/13 15:37:40;;;;;;;5.13;1.00;;;16.90;77.80;;;;;;4791676;30;20367;-78
2022/10/13 15:40:07;;;;;;;4.65;0.93;;;16.80;77.60;;;;;;4791113;30;20408;-78
2022/10/13 15:42:32;;;;;;;7.05;0.90;;;16.90;77.60;;;;;;4790918;30;20051;-79
2022/10/13 15:44:58;;;;;;;6.82;0.90;;;16.90;77.40;;;;;;4790870;30;20112;-77
2022/10/13 15:47:24;;;;;;;10.20;1.70;;;16.80;77.20;;;;;;4775589;30;20154;-79
2022/10/13 15:49:50;;;;;;;5.93;0.77;;;16.90;77.30;;;;;;4790452;30;20044;-77
2022/10/13 15:52:16;;;;;;;6.00;1.17;;;16.80;77.20;;;;;;4790775;30;20048;-78
2022/10/13 15:54:42;;;;;;;4.63;1.10;;;16.80;77.10;;;;;;4790378;30;20047;-77
2022/10/13 15:57:07;;;;;;;8.68;1.23;;;16.80;77.20;;;;;;4775411;30;20047;-78
2022/10/13 15:59:33;;;;;;;8.32;1.58;;;16.80;77.40;;;;;;4790915;30;20503;-77
2022/10/13 16:01:59;;;;;;;10.57;1.30;;;16.80;77.30;;;;;;4790726;30;20051;-77
2022/10/13 16:04:25;;;;;;;16.08;1.08;;;16.80;77.20;;;;;;4790575;30;20541;-75
2022/10/13 16:06:50;;;;;;;6.32;1.58;;;16.80;77.30;;;;;;4790776;30;20201;-76
2022/10/13 16:09:16;;;;;;;10.32;1.98;;;16.70;77.40;;;;;;4790683;30;20423;-77
2022/10/13 16:11:42;;;;;;;8.98;1.33;;;16.80;77.40;;;;;;4775322;30;20460;-76
2022/10/13 16:14:07;;;;;;;8.63;1.50;;;16.80;77.40;;;;;;4791196;30;20066;-76
2022/10/13 16:16:33;;;;;;;6.57;1.23;;;16.80;77.40;;;;;;4775087;30;20055;-76
2022/10/13 16:18:59;;;;;;;8.05;0.90;;;16.80;77.50;;;;;;4790568;30;20062;-76
2022/10/13 16:21:25;;;;;;;4.03;1.30;;;16.80;77.50;;;;;;4774763;30;20116;-77
2022/10/13 16:23:51;;;;;;;7.82;0.93;;;16.70;77.50;;;;;;4790508;30;20047;-76
2022/10/13 16:26:17;;;;;;;4.63;1.05;;;16.80;77.60;;;;;;4790951;30;20063;-76
2022/10/13 16:28:43;;;;;;;4.47;1.23;;;16.80;77.60;;;;;;4774967;30;20130;-76
2022/10/13 16:31:13;;;;;;;6.13;1.80;;;16.80;77.60;;;;;;4789925;29;20130;-77
2022/10/13 16:33:41;;;;;;;4.22;1.17;;;16.80;77.50;;;;;;4774026;30;20337;-77
2022/10/13 16:36:10;;;;;;;5.18;1.58;;;16.80;77.40;;;;;;4790211;30;20059;-79
2022/10/13 16:38:36;;;;;;;6.95;1.17;;;16.80;77.30;;;;;;4790092;30;20058;-77
2022/10/13 16:41:03;;;;;;;5.90;1.30;;;16.80;77.30;;;;;;4790147;30;20050;-77
2022/10/13 16:43:30;;;;;;;5.70;1.10;;;16.80;77.20;;;;;;4790267;30;20513;-77
2022/10/13 16:45:57;;;;;;;2.67;0.93;;;16.80;77.20;;;;;;4790188;30;20047;-76
2022/10/13 16:48:23;;;;;;;4.47;1.17;;;16.80;77.10;;;;;;4790236;30;20105;-76
2022/10/13 16:50:49;;;;;;;6.13;1.20;;;16.80;77.20;;;;;;4790008;30;20367;-75
2022/10/13 16:53:15;;;;;;;6.43;1.10;;;16.70;77.10;;;;;;4789785;30;20443;-75
2022/10/13 16:55:41;;;;;;;10.95;1.25;;;16.70;77.00;;;;;;4790347;30;20139;-76
2022/10/13 16:58:07;;;;;;;6.38;1.00;;;16.70;77.10;;;;;;4789022;30;20059;-75
2022/10/13 17:00:34;;;;;;;8.50;1.13;;;16.80;77.20;;;;;;4788934;30;20100;-75
2022/10/13 17:03:00;;;;;;;4.45;1.20;;;16.70;77.20;;;;;;4789525;30;20109;-75
2022/10/13 17:05:26;;;;;;;2.67;1.02;;;16.70;77.30;;;;;;4789497;30;20090;-74
2022/10/13 17:07:51;;;;;;;6.68;1.55;;;16.80;77.50;;;;;;4789087;30;20055;-75
2022/10/13 17:10:17;;;;;;;4.25;1.13;;;16.80;77.50;;;;;;4790099;30;20051;-75
2022/10/13 17:12:43;;;;;;;7.32;1.30;;;16.80;77.40;;;;;;4773978;30;20063;-75
2022/10/13 17:15:09;;;;;;;4.75;1.40;;;16.80;77.40;;;;;;4789747;30;20143;-75
2022/10/13 17:17:35;;;;;;;6.05;1.45;;;16.80;77.50;;;;;;4789517;30;20062;-75
2022/10/13 17:20:00;;;;;;;5.68;1.88;;;16.80;77.50;;;;;;4789597;30;20051;-75
2022/10/13 17:22:26;;;;;;;7.70;1.17;;;16.80;77.50;;;;;;4789605;30;20051;-78
2022/10/13 17:24:52;;;;;;;3.45;1.38;;;16.80;77.50;;;;;;4774430;30;20127;-75
2022/10/13 17:27:18;;;;;;;6.32;1.58;;;16.80;77.40;;;;;;4789728;30;20062;-76
2022/10/13 17:29:44;;;;;;;8.18;1.50;;;16.80;77.10;;;;;;4789736;30;20116;-75
2022/10/13 17:32:09;;;;;;;5.82;1.30;;;16.80;76.90;;;;;;4789600;30;20467;-75
2022/10/13 17:34:35;;;;;;;8.18;1.60;;;16.80;76.90;;;;;;4789629;30;20124;-74
2022/10/13 17:37:04;;;;;;;5.22;1.13;;;16.70;76.80;;;;;;4789611;30;20048;-75
2022/10/13 17:39:30;;;;;;;10.13;1.23;;;16.80;77.10;;;;;;4789507;30;20087;-75
2022/10/13 17:41:56;;;;;;;7.75;1.52;;;16.80;77.20;;;;;;4790022;29;20062;-74
2022/10/13 17:44:22;;;;;;;6.97;1.33;;;16.80;77.30;;;;;;4793362;30;20417;-75
2022/10/13 17:46:48;;;;;;;7.47;1.73;;;16.80;77.30;;;;;;4793109;30;20083;-73
2022/10/13 17:49:15;;;;;;;10.00;1.95;;;16.80;77.30;;;;;;4777411;30;20133;-74
2022/10/13 17:51:42;;;;;;;16.02;2.30;;;16.80;77.20;;;;;;4793013;30;20429;-73
2022/10/13 17:54:09;;;;;;;16.95;2.25;;;16.80;77.20;;;;;;4792878;30;20055;-73
2022/10/13 17:56:35;;;;;;;10.75;2.25;;;16.80;77.30;;;;;;4793365;30;20051;-73
2022/10/13 17:59:01;;;;;;;9.32;2.00;;;16.80;77.30;;;;;;4793019;30;20536;-73
2022/10/13 18:01:32;;;;;;;10.68;2.45;;;16.90;77.30;;;;;;4792748;30;20055;-75
2022/10/13 18:04:01;;;;;;;12.07;2.78;;;16.90;77.30;;;;;;4777107;30;20479;-75
2022/10/13 18:06:28;;;;;;;9.07;2.13;;;16.90;77.20;;;;;;4792089;30;20059;-74
2022/10/13 18:08:54;;;;;;;9.48;2.08;;;16.90;77.10;;;;;;4793315;30;20364;-74
2022/10/13 18:11:22;;;;;;;11.82;1.98;;;16.90;77.10;;;;;;4777070;30;20055;-74
2022/10/13 18:13:48;;;;;;;6.30;2.33;;;16.90;77.10;;;;;;4792888;30;20367;-75
2022/10/13 18:16:20;;;;;;;4.40;1.95;;;16.90;77.20;;;;;;4792572;30;20066;-74
2022/10/13 18:18:46;;;;;;;6.15;2.10;;;16.90;77.20;;;;;;4792857;30;20056;-75
2022/10/13 18:21:14;;;;;;;6.70;2.08;;;16.90;77.00;;;;;;4792701;30;20051;-74
2022/10/13 18:23:41;;;;;;;10.05;2.60;;;16.90;77.00;;;;;;4792524;30;20071;-74
2022/10/13 18:26:10;;;;;;;7.90;2.30;;;16.90;77.00;;;;;;4792574;30;20051;-74
2022/10/13 18:28:39;;;;;;;5.15;1.98;;;16.90;77.00;;;;;;4776853;30;20062;-75
2022/10/13 18:31:28;;;;;;;7.68;2.08;;;16.90;77.70;;;;;;4792427;30;20051;-74
2022/10/13 18:33:55;;;;;;;6.00;1.90;;;16.90;76.80;;;;;;4792375;30;20063;-74
2022/10/13 18:36:24;;;;;;;5.22;1.75;;;16.90;76.80;;;;;;4792562;30;20058;-75
2022/10/13 18:38:51;;;;;;;5.60;1.80;;;16.90;76.90;;;;;;4792239;30;20138;-75
2022/10/13 18:41:18;;;;;;;5.07;1.95;;;16.90;76.90;;;;;;4792011;30;20394;-75
2022/10/13 18:43:44;;;;;;;7.85;2.72;;;16.90;76.90;;;;;;4792272;30;20054;-73
2022/10/13 18:46:10;;;;;;;6.88;2.30;;;16.90;76.70;;;;;;4792160;30;20051;-81
2022/10/13 18:48:35;;;;;;;9.10;2.30;;;16.90;76.60;;;;;;4757740;30;20126;-84
2022/10/13 18:51:05;;;;;;;8.02;1.98;;;16.90;76.60;;;;;;4761308;30;20061;-81
2022/10/13 18:53:31;;;;;;;6.05;1.92;;;16.90;76.60;;;;;;4775679;30;20475;-80
2022/10/13 18:56:02;;;;;;;6.10;1.75;;;16.90;76.80;;;;;;4791892;30;20087;-83
2022/10/13 18:58:29;;;;;;;4.38;1.90;;;16.90;76.80;;;;;;4791890;30;20348;-77
2022/10/13 19:01:03;;;;;;;11.57;2.53;;;16.90;76.80;;;;;;4791489;30;20127;-79
2022/10/13 19:03:31;;;;;;;6.43;2.03;;;16.90;76.70;;;;;;4780878;30;20051;-81
2022/10/13 19:05:57;;;;;;;7.68;1.92;;;16.90;76.70;;;;;;4773917;30;20062;-79
2022/10/13 19:08:23;;;;;;;8.07;1.90;;;16.90;76.80;;;;;;4757628;30;20135;-79
2022/10/13 19:10:49;;;;;;;6.03;2.35;;;16.90;76.80;;;;;;4773777;30;20055;-80
2022/10/13 19:13:15;;;;;;;5.35;2.08;;;16.90;76.80;;;;;;4773042;30;20052;-79
2022/10/13 19:15:44;;;;;;;7.93;1.90;;;16.90;76.70;;;;;;4773459;30;20189;-83
2022/10/13 19:18:09;;;;;;;9.18;4.30;;;16.90;76.40;;;;;;4773952;30;20052;-81
2022/10/13 19:20:35;;;;;;;7.43;4.35;;;17.00;75.70;;;;;;4773252;30;20100;-82
2022/10/13 19:23:01;;;;;;;7.53;4.97;;;16.90;75.50;;;;;;4757802;30;20123;-80
2022/10/13 19:25:26;;;;;;;6.80;4.47;;;16.80;75.60;;;;;;4744178;30;20043;-79
2022/10/13 19:27:52;;;;;;;9.85;4.90;;;16.70;75.70;;;;;;4740001;30;20369;-81
2022/10/13 19:30:18;;;;;;;9.43;5.35;;;16.60;75.90;;;;;;4741105;30;20365;-81
2022/10/13 19:32:44;;;;;;;8.70;5.50;;;16.50;76.00;;;;;;4755120;30;20056;-79
2022/10/13 19:35:10;;;;;;;8.80;5.63;;;16.40;76.10;;;;;;4756131;30;20133;-78
2022/10/13 19:37:37;;;;;;;6.97;5.55;;;16.30;76.10;;;;;;4755937;30;20048;-79
2022/10/13 19:40:06;;;;;;;11.90;6.25;;;16.30;76.20;;;;;;4771634;30;20044;-79
2022/10/13 19:42:32;;;;;;;5.63;5.10;;;16.20;76.30;;;;;;4773390;30;20048;-80
2022/10/13 19:45:03;;;;;;;7.93;6.15;;;16.20;76.40;;;;;;4773287;30;20070;-79
2022/10/13 19:47:29;;;;;;;9.70;5.03;;;16.10;76.40;;;;;;4772420;30;20044;-78
2022/10/13 19:49:55;;;;;;;9.40;5.43;;;16.10;76.40;;;;;;4758126;30;20058;-79
2022/10/13 19:52:20;;;;;;;7.93;5.47;;;16.00;76.30;;;;;;4771954;30;20067;-80
2022/10/13 19:54:46;;;;;;;10.60;5.47;;;15.90;76.30;;;;;;4772926;30;20051;-78
2022/10/13 19:57:12;;;;;;;10.10;5.60;;;15.90;76.70;;;;;;4773248;30;20116;-77
2022/10/13 19:59:38;;;;;;;11.48;7.18;;;15.90;77.00;;;;;;4756752;30;20448;-78
2022/10/13 20:02:03;;;;;;;11.60;7.03;;;15.90;77.10;;;;;;4772830;30;20132;-78
2022/10/13 20:04:32;;;;;;;9.43;7.00;;;15.90;77.30;;;;;;4788452;29;20499;-80
2022/10/13 20:06:57;;;;;;;11.13;7.60;;;16.00;77.30;;;;;;4775195;30;20510;-81
2022/10/13 20:09:23;;;;;;;8.85;7.15;;;15.90;77.30;;;;;;4790651;30;20039;-78
2022/10/13 20:11:50;;;;;;;15.75;7.60;;;16.00;77.30;;;;;;4774652;30;20092;-79